Terminal Aerodrome Forecast
Issued by NWS Huntsville, AL

Home | Current Version | Previous Version | Text Only | Print | Product List | Glossary On
Versions: 1 2 3 4 5 6 7 8 9 10 11 12 13 14 15
000
FTUS44 KHUN 231121 CCA
TAFMSL
TAF COR
KMSL 231121Z 2312/2412 VRB03KT P6SM VCSH BKN050
     FM231700 20005KT P6SM VCTS BKN050CB
     FM232000 22005KT P6SM BKN050
      TEMPO 2320/2324 5SM -TSRA BR BKN030CB
     FM240000 VRB03KT P6SM BKN250=

USA.gov is the U.S. government's official web portal to all federal, state and local government web resources and services.